sensor_id;sensor_type;location;lat;lon;timestamp;pressure;altitude;pressure_sealevel;temperature;humidity
12759;BME280;20944;47.048;15.390;2023-05-24T00:00:52;97369.19;;;16.71;100.00
12759;BME280;20944;47.048;15.390;2023-05-24T00:03:21;97364.19;;;16.65;100.00
12759;BME280;20944;47.048;15.390;2023-05-24T00:05:51;97372.06;;;16.66;100.00
12759;BME280;20944;47.048;15.390;2023-05-24T00:08:19;97368.25;;;16.72;100.00
12759;BME280;20944;47.048;15.390;2023-05-24T00:10:48;97371.06;;;16.85;100.00
12759;BME280;20944;47.048;15.390;2023-05-24T00:13:16;97357.41;;;16.77;100.00
12759;BME280;20944;47.048;15.390;2023-05-24T00:15:44;97355.16;;;16.69;100.00
12759;BME280;20944;47.048;15.390;2023-05-24T00:18:12;97360.97;;;16.60;100.00
12759;BME280;20944;47.048;15.390;2023-05-24T00:20:43;97359.84;;;16.64;100.00
12759;BME280;20944;47.048;15.390;2023-05-24T00:23:13;97361.31;;;16.69;100.00
12759;BME280;20944;47.048;15.390;2023-05-24T00:25:41;97367.28;;;16.57;100.00
12759;BME280;20944;47.048;15.390;2023-05-24T00:28:10;97369.16;;;16.55;100.00
12759;BME280;20944;47.048;15.390;2023-05-24T00:30:38;97367.81;;;16.48;100.00
12759;BME280;20944;47.048;15.390;2023-05-24T00:33:07;97373.00;;;16.50;100.00
12759;BME280;20944;47.048;15.390;2023-05-24T00:35:35;97360.03;;;16.45;100.00
12759;BME280;20944;47.048;15.390;2023-05-24T00:38:03;97372.91;;;16.51;100.00
12759;BME280;20944;47.048;15.390;2023-05-24T00:40:33;97369.25;;;16.54;100.00
12759;BME280;20944;47.048;15.390;2023-05-24T00:43:02;97371.97;;;16.52;100.00
12759;BME280;20944;47.048;15.390;2023-05-24T00:45:30;97368.47;;;16.52;100.00
12759;BME280;20944;47.048;15.390;2023-05-24T00:47:59;97376.50;;;16.50;100.00
12759;BME280;20944;47.048;15.390;2023-05-24T00:50:28;97344.69;;;16.36;100.00
12759;BME280;20944;47.048;15.390;2023-05-24T00:52:58;97377.34;;;16.51;100.00
12759;BME280;20944;47.048;15.390;2023-05-24T00:55:28;97381.63;;;16.53;100.00
12759;BME280;20944;47.048;15.390;2023-05-24T00:57:58;97375.06;;;16.60;100.00
12759;BME280;20944;47.048;15.390;2023-05-24T01:00:26;97377.19;;;16.54;100.00
12759;BME280;20944;47.048;15.390;2023-05-24T01:02:56;97375.41;;;16.54;100.00
12759;BME280;20944;47.048;15.390;2023-05-24T01:05:27;97373.84;;;16.50;100.00
12759;BME280;20944;47.048;15.390;2023-05-24T01:08:03;97375.13;;;16.43;100.00
12759;BME280;20944;47.048;15.390;2023-05-24T01:10:41;97371.88;;;16.38;100.00
12759;BME280;20944;47.048;15.390;2023-05-24T01:13:19;97377.44;;;16.33;100.00
12759;BME280;20944;47.048;15.390;2023-05-24T01:15:56;97373.78;;;16.36;100.00
12759;BME280;20944;47.048;15.390;2023-05-24T01:18:30;97378.97;;;16.37;100.00
12759;BME280;20944;47.048;15.390;2023-05-24T01:21:07;97387.75;;;16.38;100.00
12759;BME280;20944;47.048;15.390;2023-05-24T01:23:44;97337.00;;;16.15;100.00
12759;BME280;20944;47.048;15.390;2023-05-24T01:26:19;97388.13;;;16.48;100.00
12759;BME280;20944;47.048;15.390;2023-05-24T01:28:53;97399.53;;;16.32;100.00
12759;BME280;20944;47.048;15.390;2023-05-24T01:31:22;97387.25;;;16.31;100.00
12759;BME280;20944;47.048;15.390;2023-05-24T01:33:51;97391.66;;;16.15;100.00
12759;BME280;20944;47.048;15.390;2023-05-24T01:36:20;97395.41;;;16.11;100.00
12759;BME280;20944;47.048;15.390;2023-05-24T01:38:49;97395.22;;;16.14;100.00
12759;BME280;20944;47.048;15.390;2023-05-24T01:41:26;97397.81;;;16.15;100.00
12759;BME280;20944;47.048;15.390;2023-05-24T01:44:06;97395.94;;;16.17;100.00
12759;BME280;20944;47.048;15.390;2023-05-24T01:46:37;97398.47;;;16.19;100.00
12759;BME280;20944;47.048;15.390;2023-05-24T01:49:12;97397.81;;;16.15;100.00
12759;BME280;20944;47.048;15.390;2023-05-24T01:51:48;97385.94;;;16.07;100.00
12759;BME280;20944;47.048;15.390;2023-05-24T01:54:20;97403.34;;;16.11;100.00
12759;BME280;20944;47.048;15.390;2023-05-24T01:56:51;97400.78;;;16.09;100.00
12759;BME280;20944;47.048;15.390;2023-05-24T01:59:23;97390.97;;;16.11;100.00
12759;BME280;20944;47.048;15.390;2023-05-24T02:01:52;97396.06;;;16.14;100.00
12759;BME280;20944;47.048;15.390;2023-05-24T02:04:21;97394.22;;;16.16;100.00
12759;BME280;20944;47.048;15.390;2023-05-24T02:06:50;97398.66;;;16.16;100.00
12759;BME280;20944;47.048;15.390;2023-05-24T02:09:18;97396.59;;;16.21;100.00
12759;BME280;20944;47.048;15.390;2023-05-24T02:11:47;97399.84;;;16.26;100.00
12759;BME280;20944;47.048;15.390;2023-05-24T02:14:15;97383.47;;;16.19;100.00
12759;BME280;20944;47.048;15.390;2023-05-24T02:16:47;97408.63;;;16.27;100.00
12759;BME280;20944;47.048;15.390;2023-05-24T02:19:16;97396.69;;;16.19;100.00
12759;BME280;20944;47.048;15.390;2023-05-24T02:21:44;97393.03;;;16.22;100.00
12759;BME280;20944;47.048;15.390;2023-05-24T02:24:13;97405.19;;;16.42;100.00
12759;BME280;20944;47.048;15.390;2023-05-24T02:26:42;97390.13;;;16.11;100.00
12759;BME280;20944;47.048;15.390;2023-05-24T02:29:10;97404.16;;;16.29;100.00
12759;BME280;20944;47.048;15.390;2023-05-24T02:31:38;97418.13;;;16.31;100.00
12759;BME280;20944;47.048;15.390;2023-05-24T02:34:08;97403.00;;;16.17;100.00
12759;BME280;20944;47.048;15.390;2023-05-24T02:36:36;97396.88;;;16.16;100.00
12759;BME280;20944;47.048;15.390;2023-05-24T02:39:04;97401.03;;;16.21;100.00
12759;BME280;20944;47.048;15.390;2023-05-24T02:41:33;97402.31;;;16.13;100.00
12759;BME280;20944;47.048;15.390;2023-05-24T02:44:01;97400.69;;;16.11;100.00
12759;BME280;20944;47.048;15.390;2023-05-24T02:46:29;97394.28;;;16.15;100.00
12759;BME280;20944;47.048;15.390;2023-05-24T02:48:58;97394.28;;;16.15;100.00
12759;BME280;20944;47.048;15.390;2023-05-24T02:51:27;97401.53;;;16.11;100.00
12759;BME280;20944;47.048;15.390;2023-05-24T02:53:55;97413.41;;;16.20;100.00
12759;BME280;20944;47.048;15.390;2023-05-24T02:56:24;97413.72;;;16.14;100.00
12759;BME280;20944;47.048;15.390;2023-05-24T02:58:53;97410.56;;;16.07;100.00
12759;BME280;20944;47.048;15.390;2023-05-24T03:01:22;97403.75;;;16.03;100.00
12759;BME280;20944;47.048;15.390;2023-05-24T03:03:50;97412.88;;;15.98;100.00
12759;BME280;20944;47.048;15.390;2023-05-24T03:06:19;97394.91;;;15.87;100.00
12759;BME280;20944;47.048;15.390;2023-05-24T03:08:48;97419.97;;;16.13;100.00
12759;BME280;20944;47.048;15.390;2023-05-24T03:11:17;97421.66;;;16.14;100.00
12759;BME280;20944;47.048;15.390;2023-05-24T03:13:48;97412.91;;;15.96;100.00
12759;BME280;20944;47.048;15.390;2023-05-24T03:16:16;97414.66;;;15.97;100.00
12759;BME280;20944;47.048;15.390;2023-05-24T03:18:45;97419.94;;;15.97;100.00
12759;BME280;20944;47.048;15.390;2023-05-24T03:21:16;97419.63;;;16.03;100.00
12759;BME280;20944;47.048;15.390;2023-05-24T03:23:46;97423.88;;;16.06;100.00
12759;BME280;20944;47.048;15.390;2023-05-24T03:26:16;97428.94;;;16.10;100.00
12759;BME280;20944;47.048;15.390;2023-05-24T03:28:46;97424.72;;;16.06;100.00
12759;BME280;20944;47.048;15.390;2023-05-24T03:31:16;97423.09;;;16.04;100.00
12759;BME280;20944;47.048;15.390;2023-05-24T03:33:46;97411.22;;;15.95;100.00
12759;BME280;20944;47.048;15.390;2023-05-24T03:36:14;97420.81;;;16.13;100.00
12759;BME280;20944;47.048;15.390;2023-05-24T03:38:43;97430.72;;;16.10;100.00
12759;BME280;20944;47.048;15.390;2023-05-24T03:41:11;97432.03;;;16.01;100.00
12759;BME280;20944;47.048;15.390;2023-05-24T03:43:41;97432.34;;;15.95;100.00
12759;BME280;20944;47.048;15.390;2023-05-24T03:46:09;97420.41;;;15.88;100.00
12759;BME280;20944;47.048;15.390;2023-05-24T03:48:37;97435.53;;;16.02;100.00
12759;BME280;20944;47.048;15.390;2023-05-24T03:51:06;97438.25;;;16.00;100.00
12759;BME280;20944;47.048;15.390;2023-05-24T03:53:35;97376.91;;;15.60;100.00
12759;BME280;20944;47.048;15.390;2023-05-24T03:56:03;97441.94;;;15.98;100.00
12759;BME280;20944;47.048;15.390;2023-05-24T03:58:31;97439.53;;;15.93;100.00
12759;BME280;20944;47.048;15.390;2023-05-24T04:01:01;97410.34;;;15.79;100.00
12759;BME280;20944;47.048;15.390;2023-05-24T04:03:29;97439.03;;;16.02;100.00
12759;BME280;20944;47.048;15.390;2023-05-24T04:06:00;97444.16;;;16.05;100.00
12759;BME280;20944;47.048;15.390;2023-05-24T04:08:28;97444.69;;;16.12;100.00
12759;BME280;20944;47.048;15.390;2023-05-24T04:10:57;97445.41;;;16.15;100.00
12759;BME280;20944;47.048;15.390;2023-05-24T04:13:25;97455.81;;;16.18;100.00
12759;BME280;20944;47.048;15.390;2023-05-24T04:15:54;97456.31;;;16.25;100.00
12759;BME280;20944;47.048;15.390;2023-05-24T04:18:23;97454.38;;;16.29;100.00
12759;BME280;20944;47.048;15.390;2023-05-24T04:20:52;97457.88;;;16.29;100.00
12759;BME280;20944;47.048;15.390;2023-05-24T04:23:20;97467.00;;;16.39;100.00
12759;BME280;20944;47.048;15.390;2023-05-24T04:25:48;97466.44;;;16.34;100.00
12759;BME280;20944;47.048;15.390;2023-05-24T04:28:17;97468.50;;;16.28;100.00
12759;BME280;20944;47.048;15.390;2023-05-24T04:30:47;97465.19;;;16.24;100.00
12759;BME280;20944;47.048;15.390;2023-05-24T04:33:16;97462.78;;;16.19;100.00
12759;BME280;20944;47.048;15.390;2023-05-24T04:35:45;97437.66;;;15.95;100.00
12759;BME280;20944;47.048;15.390;2023-05-24T04:38:14;97471.03;;;16.13;100.00
12759;BME280;20944;47.048;15.390;2023-05-24T04:40:43;97458.06;;;16.09;100.00
12759;BME280;20944;47.048;15.390;2023-05-24T04:43:11;97467.63;;;16.11;100.00
12759;BME280;20944;47.048;15.390;2023-05-24T04:45:40;97466.38;;;16.18;100.00
12759;BME280;20944;47.048;15.390;2023-05-24T04:48:08;97464.34;;;16.24;100.00
12759;BME280;20944;47.048;15.390;2023-05-24T04:50:36;97474.75;;;16.27;100.00
12759;BME280;20944;47.048;15.390;2023-05-24T04:53:06;97481.41;;;16.34;100.00
12759;BME280;20944;47.048;15.390;2023-05-24T04:55:35;97485.69;;;16.36;100.00
12759;BME280;20944;47.048;15.390;2023-05-24T04:58:03;97483.72;;;16.40;100.00
12759;BME280;20944;47.048;15.390;2023-05-24T05:00:31;97484.53;;;16.42;100.00
12759;BME280;20944;47.048;15.390;2023-05-24T05:02:59;97489.63;;;16.45;100.00
12759;BME280;20944;47.048;15.390;2023-05-24T05:05:27;97488.63;;;16.48;100.00
12759;BME280;20944;47.048;15.390;2023-05-24T05:07:56;97489.50;;;16.48;100.00
12759;BME280;20944;47.048;15.390;2023-05-24T05:10:26;97488.38;;;16.52;100.00
12759;BME280;20944;47.048;15.390;2023-05-24T05:12:54;97488.13;;;16.57;100.00
12759;BME280;20944;47.048;15.390;2023-05-24T05:15:23;97482.41;;;16.64;100.00
12759;BME280;20944;47.048;15.390;2023-05-24T05:17:51;97481.78;;;16.59;100.00
12759;BME280;20944;47.048;15.390;2023-05-24T05:20:21;97459.59;;;16.46;100.00
12759;BME280;20944;47.048;15.390;2023-05-24T05:22:49;97489.31;;;16.51;100.00
12759;BME280;20944;47.048;15.390;2023-05-24T05:25:18;97485.56;;;16.55;100.00
12759;BME280;20944;47.048;15.390;2023-05-24T05:27:47;97482.84;;;16.57;100.00
12759;BME280;20944;47.048;15.390;2023-05-24T05:30:15;97490.84;;;16.55;100.00
12759;BME280;20944;47.048;15.390;2023-05-24T05:32:44;97480.09;;;16.58;100.00
12759;BME280;20944;47.048;15.390;2023-05-24T05:35:12;97493.84;;;16.65;100.00
12759;BME280;20944;47.048;15.390;2023-05-24T05:37:41;97493.09;;;16.63;100.00
12759;BME280;20944;47.048;15.390;2023-05-24T05:40:10;97501.88;;;16.63;100.00
12759;BME280;20944;47.048;15.390;2023-05-24T05:42:38;97483.53;;;16.60;100.00
12759;BME280;20944;47.048;15.390;2023-05-24T05:45:09;97498.97;;;16.68;100.00
12759;BME280;20944;47.048;15.390;2023-05-24T05:47:37;97503.28;;;16.70;100.00
12759;BME280;20944;47.048;15.390;2023-05-24T05:50:06;97501.94;;;16.79;100.00
12759;BME280;20944;47.048;15.390;2023-05-24T05:52:35;97497.56;;;16.78;100.00
12759;BME280;20944;47.048;15.390;2023-05-24T05:55:04;97502.59;;;16.83;100.00
12759;BME280;20944;47.048;15.390;2023-05-24T05:57:32;97503.22;;;16.88;100.00
12759;BME280;20944;47.048;15.390;2023-05-24T06:00:01;97510.44;;;16.84;100.00
12759;BME280;20944;47.048;15.390;2023-05-24T06:02:30;97510.63;;;16.81;100.00
12759;BME280;20944;47.048;15.390;2023-05-24T06:04:59;97509.69;;;16.82;100.00
12759;BME280;20944;47.048;15.390;2023-05-24T06:07:27;97510.53;;;16.83;100.00
12759;BME280;20944;47.048;15.390;2023-05-24T06:09:56;97513.97;;;16.85;100.00
12759;BME280;20944;47.048;15.390;2023-05-24T06:12:24;97511.25;;;16.86;100.00
12759;BME280;20944;47.048;15.390;2023-05-24T06:14:52;97522.34;;;16.93;100.00
12759;BME280;20944;47.048;15.390;2023-05-24T06:17:23;97523.19;;;16.93;100.00
12759;BME280;20944;47.048;15.390;2023-05-24T06:19:53;97524.06;;;16.94;100.00
12759;BME280;20944;47.048;15.390;2023-05-24T06:22:21;97522.88;;;16.99;100.00
12759;BME280;20944;47.048;15.390;2023-05-24T06:24:50;97525.31;;;17.03;100.00
12759;BME280;20944;47.048;15.390;2023-05-24T06:27:18;97531.66;;;17.00;100.00
12759;BME280;20944;47.048;15.390;2023-05-24T06:29:47;97529.09;;;16.98;100.00
12759;BME280;20944;47.048;15.390;2023-05-24T06:32:15;97529.34;;;16.94;100.00
12759;BME280;20944;47.048;15.390;2023-05-24T06:34:44;97532.75;;;16.96;100.00
12759;BME280;20944;47.048;15.390;2023-05-24T06:37:13;97522.78;;;16.85;100.00
12759;BME280;20944;47.048;15.390;2023-05-24T06:39:42;97530.53;;;16.88;100.00
12759;BME280;20944;47.048;15.390;2023-05-24T06:42:10;97540.63;;;16.97;100.00
12759;BME280;20944;47.048;15.390;2023-05-24T06:44:38;97544.19;;;16.96;100.00
12759;BME280;20944;47.048;15.390;2023-05-24T06:47:06;97538.66;;;17.01;100.00
12759;BME280;20944;47.048;15.390;2023-05-24T06:49:35;97549.16;;;17.03;100.00
12759;BME280;20944;47.048;15.390;2023-05-24T06:52:04;97544.56;;;17.06;100.00
12759;BME280;20944;47.048;15.390;2023-05-24T06:54:34;97547.31;;;17.05;100.00
12759;BME280;20944;47.048;15.390;2023-05-24T06:57:03;97533.38;;;17.01;100.00
12759;BME280;20944;47.048;15.390;2023-05-24T06:59:31;97556.00;;;17.07;100.00
12759;BME280;20944;47.048;15.390;2023-05-24T07:02:00;97543.63;;;17.07;100.00
12759;BME280;20944;47.048;15.390;2023-05-24T07:04:30;97552.59;;;17.05;100.00
12759;BME280;20944;47.048;15.390;2023-05-24T07:06:58;97551.81;;;17.03;100.00
12759;BME280;20944;47.048;15.390;2023-05-24T07:09:26;97554.97;;;17.09;100.00
12759;BME280;20944;47.048;15.390;2023-05-24T07:11:56;97554.81;;;17.12;100.00
12759;BME280;20944;47.048;15.390;2023-05-24T07:14:25;97562.84;;;17.11;100.00
12759;BME280;20944;47.048;15.390;2023-05-24T07:16:53;97557.22;;;17.17;100.00
12759;BME280;20944;47.048;15.390;2023-05-24T07:19:23;97553.00;;;17.13;100.00
12759;BME280;20944;47.048;15.390;2023-05-24T07:21:55;97564.47;;;17.13;100.00
12759;BME280;20944;47.048;15.390;2023-05-24T07:24:23;97540.69;;;16.96;100.00
12759;BME280;20944;47.048;15.390;2023-05-24T07:26:52;97559.75;;;17.03;100.00
12759;BME280;20944;47.048;15.390;2023-05-24T07:29:24;97564.03;;;17.05;100.00
12759;BME280;20944;47.048;15.390;2023-05-24T07:31:53;97562.81;;;16.95;100.00
12759;BME280;20944;47.048;15.390;2023-05-24T07:34:23;97566.06;;;17.00;100.00
12759;BME280;20944;47.048;15.390;2023-05-24T07:36:56;97573.25;;;16.98;100.00
12759;BME280;20944;47.048;15.390;2023-05-24T07:39:26;97556.06;;;16.89;100.00
12759;BME280;20944;47.048;15.390;2023-05-24T07:41:55;97574.09;;;16.98;100.00
12759;BME280;20944;47.048;15.390;2023-05-24T07:44:24;97574.59;;;16.89;100.00
12759;BME280;20944;47.048;15.390;2023-05-24T07:46:53;97571.34;;;16.84;100.00
12759;BME280;20944;47.048;15.390;2023-05-24T07:49:21;97549.13;;;16.71;100.00
12759;BME280;20944;47.048;15.390;2023-05-24T07:51:50;97567.69;;;16.87;100.00
12759;BME280;20944;47.048;15.390;2023-05-24T07:54:18;97575.63;;;16.87;100.00
12759;BME280;20944;47.048;15.390;2023-05-24T07:56:47;97576.38;;;16.89;100.00
12759;BME280;20944;47.048;15.390;2023-05-24T07:59:16;97577.31;;;16.88;100.00
12759;BME280;20944;47.048;15.390;2023-05-24T08:01:46;97585.03;;;16.92;100.00
12759;BME280;20944;47.048;15.390;2023-05-24T08:04:14;97582.47;;;16.91;100.00
12759;BME280;20944;47.048;15.390;2023-05-24T08:06:42;97580.91;;;16.87;100.00
12759;BME280;20944;47.048;15.390;2023-05-24T08:09:12;97584.56;;;16.84;100.00
12759;BME280;20944;47.048;15.390;2023-05-24T08:11:40;97585.69;;;16.80;100.00
12759;BME280;20944;47.048;15.390;2023-05-24T08:14:09;97587.91;;;16.72;100.00
12759;BME280;20944;47.048;15.390;2023-05-24T08:16:37;97581.81;;;16.70;100.00
12759;BME280;20944;47.048;15.390;2023-05-24T08:19:07;97586.41;;;16.66;100.00
12759;BME280;20944;47.048;15.390;2023-05-24T08:21:35;97592.06;;;16.76;100.00
12759;BME280;20944;47.048;15.390;2023-05-24T08:24:04;97587.81;;;16.89;100.00
12759;BME280;20944;47.048;15.390;2023-05-24T08:26:35;97585.78;;;16.94;100.00
12759;BME280;20944;47.048;15.390;2023-05-24T08:29:03;97600.31;;;17.03;100.00
12759;BME280;20944;47.048;15.390;2023-05-24T08:31:32;97594.09;;;17.04;100.00
12759;BME280;20944;47.048;15.390;2023-05-24T08:34:00;97597.84;;;17.00;100.00
12759;BME280;20944;47.048;15.390;2023-05-24T08:36:30;97597.66;;;17.03;100.00
12759;BME280;20944;47.048;15.390;2023-05-24T08:38:58;97600.91;;;17.08;100.00
12759;BME280;20944;47.048;15.390;2023-05-24T08:41:27;97604.84;;;17.01;100.00
12759;BME280;20944;47.048;15.390;2023-05-24T08:43:57;97609.94;;;16.88;100.00
12759;BME280;20944;47.048;15.390;2023-05-24T08:46:28;97609.41;;;16.82;100.00
12759;BME280;20944;47.048;15.390;2023-05-24T08:48:56;97617.75;;;16.74;100.00
12759;BME280;20944;47.048;15.390;2023-05-24T08:51:26;97610.97;;;16.68;100.00
12759;BME280;20944;47.048;15.390;2023-05-24T08:53:56;97623.66;;;16.62;100.00
12759;BME280;20944;47.048;15.390;2023-05-24T08:56:26;97627.47;;;16.56;100.00
12759;BME280;20944;47.048;15.390;2023-05-24T08:58:54;97621.78;;;16.46;100.00
12759;BME280;20944;47.048;15.390;2023-05-24T09:01:23;97632.63;;;16.42;100.00
12759;BME280;20944;47.048;15.390;2023-05-24T09:03:56;97631.06;;;16.38;100.00
12759;BME280;20944;47.048;15.390;2023-05-24T09:06:26;97626.28;;;16.29;100.00
12759;BME280;20944;47.048;15.390;2023-05-24T09:08:58;97638.38;;;16.33;100.00
12759;BME280;20944;47.048;15.390;2023-05-24T09:11:27;97639.22;;;16.33;100.00
12759;BME280;20944;47.048;15.390;2023-05-24T09:13:56;97643.22;;;16.42;100.00
12759;BME280;20944;47.048;15.390;2023-05-24T09:16:24;97640.50;;;16.43;100.00
12759;BME280;20944;47.048;15.390;2023-05-24T09:18:53;97629.50;;;16.34;100.00
12759;BME280;20944;47.048;15.390;2023-05-24T09:21:21;97625.97;;;16.35;100.00
12759;BME280;20944;47.048;15.390;2023-05-24T09:23:50;97635.19;;;16.43;100.00
12759;BME280;20944;47.048;15.390;2023-05-24T09:26:21;97639.19;;;16.35;100.00
12759;BME280;20944;47.048;15.390;2023-05-24T09:28:53;97631.91;;;16.21;100.00
12759;BME280;20944;47.048;15.390;2023-05-24T09:31:31;97641.50;;;16.24;100.00
12759;BME280;20944;47.048;15.390;2023-05-24T09:34:00;97647.19;;;16.16;100.00
12759;BME280;20944;47.048;15.390;2023-05-24T09:36:31;97636.97;;;16.08;100.00
12759;BME280;20944;47.048;15.390;2023-05-24T09:39:07;97649.56;;;16.21;100.00
12759;BME280;20944;47.048;15.390;2023-05-24T09:41:37;97627.31;;;16.07;100.00
12759;BME280;20944;47.048;15.390;2023-05-24T09:44:06;97656.22;;;16.29;100.00
12759;BME280;20944;47.048;15.390;2023-05-24T09:46:35;97643.97;;;16.27;100.00
12759;BME280;20944;47.048;15.390;2023-05-24T09:49:04;97635.66;;;16.17;100.00
12759;BME280;20944;47.048;15.390;2023-05-24T09:51:36;97655.72;;;16.21;100.00
12759;BME280;20944;47.048;15.390;2023-05-24T09:54:05;97652.16;;;16.22;100.00
12759;BME280;20944;47.048;15.390;2023-05-24T09:56:34;97652.22;;;16.21;100.00
12759;BME280;20944;47.048;15.390;2023-05-24T09:59:07;97652.00;;;16.25;100.00
12759;BME280;20944;47.048;15.390;2023-05-24T10:01:36;97655.06;;;16.35;100.00
12759;BME280;20944;47.048;15.390;2023-05-24T10:04:04;97653.94;;;16.39;100.00
12759;BME280;20944;47.048;15.390;2023-05-24T10:06:36;97648.50;;;16.42;100.00
12759;BME280;20944;47.048;15.390;2023-05-24T10:09:04;97648.34;;;16.45;100.00
12759;BME280;20944;47.048;15.390;2023-05-24T10:11:35;97651.91;;;16.44;100.00
12759;BME280;20944;47.048;15.390;2023-05-24T10:14:04;97649.91;;;16.49;100.00
12759;BME280;20944;47.048;15.390;2023-05-24T10:16:34;97640.00;;;16.53;100.00
12759;BME280;20944;47.048;15.390;2023-05-24T10:19:04;97641.75;;;16.54;100.00
12759;BME280;20944;47.048;15.390;2023-05-24T10:21:35;97652.69;;;16.63;100.00
12759;BME280;20944;47.048;15.390;2023-05-24T10:24:07;97652.00;;;16.60;100.00
12759;BME280;20944;47.048;15.390;2023-05-24T10:26:37;97645.25;;;16.54;100.00
12759;BME280;20944;47.048;15.390;2023-05-24T10:29:10;97656.28;;;16.62;100.00
12759;BME280;20944;47.048;15.390;2023-05-24T10:31:46;97661.38;;;16.65;100.00
12759;BME280;20944;47.048;15.390;2023-05-24T10:34:15;97654.09;;;16.70;100.00
12759;BME280;20944;47.048;15.390;2023-05-24T10:36:44;97654.66;;;16.77;100.00
12759;BME280;20944;47.048;15.390;2023-05-24T10:39:12;97654.84;;;16.90;100.00
12759;BME280;20944;47.048;15.390;2023-05-24T10:41:40;97664.03;;;17.00;100.00
12759;BME280;20944;47.048;15.390;2023-05-24T10:44:10;97649.00;;;17.01;100.00
12759;BME280;20944;47.048;15.390;2023-05-24T10:47:08;97658.50;;;17.20;100.00
12759;BME280;20944;47.048;15.390;2023-05-24T10:49:37;97630.22;;;17.05;100.00
12759;BME280;20944;47.048;15.390;2023-05-24T10:52:07;97637.78;;;17.29;100.00
12759;BME280;20944;47.048;15.390;2023-05-24T10:54:35;97662.56;;;17.59;100.00
12759;BME280;20944;47.048;15.390;2023-05-24T10:57:12;97661.91;;;17.71;100.00
12759;BME280;20944;47.048;15.390;2023-05-24T10:59:50;97650.91;;;17.79;100.00
12759;BME280;20944;47.048;15.390;2023-05-24T11:02:19;97664.13;;;17.95;100.00
12759;BME280;20944;47.048;15.390;2023-05-24T11:04:48;97656.88;;;17.98;100.00
12759;BME280;20944;47.048;15.390;2023-05-24T11:07:17;97660.09;;;18.03;100.00
12759;BME280;20944;47.048;15.390;2023-05-24T11:09:47;97649.56;;;18.02;100.00
12759;BME280;20944;47.048;15.390;2023-05-24T11:12:20;97652.31;;;18.00;100.00
12759;BME280;20944;47.048;15.390;2023-05-24T11:14:49;97660.09;;;18.03;100.00
12759;BME280;20944;47.048;15.390;2023-05-24T11:17:20;97661.72;;;18.06;100.00
12759;BME280;20944;47.048;15.390;2023-05-24T11:19:50;97660.53;;;18.12;100.00
12759;BME280;20944;47.048;15.390;2023-05-24T11:22:20;97656.44;;;18.06;100.00
12759;BME280;20944;47.048;15.390;2023-05-24T11:24:49;97656.03;;;17.98;100.00
12759;BME280;20944;47.048;15.390;2023-05-24T11:27:19;97659.88;;;17.92;100.00
12759;BME280;20944;47.048;15.390;2023-05-24T11:29:47;97651.66;;;17.81;100.00
12759;BME280;20944;47.048;15.390;2023-05-24T11:32:17;97632.66;;;17.57;100.00
12759;BME280;20944;47.048;15.390;2023-05-24T11:34:48;97654.56;;;17.76;100.00
12759;BME280;20944;47.048;15.390;2023-05-24T11:37:18;97683.53;;;17.64;100.00
12759;BME280;20944;47.048;15.390;2023-05-24T11:40:01;97653.09;;;17.55;100.00
12759;BME280;20944;47.048;15.390;2023-05-24T11:42:32;97649.66;;;17.53;100.00
12759;BME280;20944;47.048;15.390;2023-05-24T11:45:00;97650.50;;;17.53;100.00
12759;BME280;20944;47.048;15.390;2023-05-24T11:47:29;97644.34;;;17.53;100.00
12759;BME280;20944;47.048;15.390;2023-05-24T11:49:59;97630.44;;;17.49;100.00
12759;BME280;20944;47.048;15.390;2023-05-24T11:52:27;97648.22;;;17.63;100.00
12759;BME280;20944;47.048;15.390;2023-05-24T11:54:56;97649.56;;;17.70;100.00
12759;BME280;20944;47.048;15.390;2023-05-24T11:57:29;97649.47;;;17.73;100.00
12759;BME280;20944;47.048;15.390;2023-05-24T11:59:58;97644.91;;;17.75;100.00
12759;BME280;20944;47.048;15.390;2023-05-24T12:02:28;97646.41;;;17.64;100.00
12759;BME280;20944;47.048;15.390;2023-05-24T12:05:07;97643.16;;;17.59;100.00
12759;BME280;20944;47.048;15.390;2023-05-24T12:07:35;97652.91;;;17.58;100.00
12759;BME280;20944;47.048;15.390;2023-05-24T12:10:04;97659.00;;;17.60;100.00
12759;BME280;20944;47.048;15.390;2023-05-24T12:12:33;97648.41;;;17.60;100.00
12759;BME280;20944;47.048;15.390;2023-05-24T12:15:11;97650.25;;;17.58;100.00
12759;BME280;20944;47.048;15.390;2023-05-24T12:17:40;97649.16;;;17.62;100.00
12759;BME280;20944;47.048;15.390;2023-05-24T12:20:11;97644.72;;;17.63;100.00
12759;BME280;20944;47.048;15.390;2023-05-24T12:22:47;97646.94;;;17.70;100.00
12759;BME280;20944;47.048;15.390;2023-05-24T12:25:16;97627.34;;;17.57;100.00
12759;BME280;20944;47.048;15.390;2023-05-24T12:27:50;97650.13;;;17.77;100.00
12759;BME280;20944;47.048;15.390;2023-05-24T12:30:21;97647.38;;;17.78;100.00
12759;BME280;20944;47.048;15.390;2023-05-24T12:32:50;97635.41;;;17.71;100.00
12759;BME280;20944;47.048;15.390;2023-05-24T12:35:21;97629.66;;;17.63;100.00
12759;BME280;20944;47.048;15.390;2023-05-24T12:37:57;97635.47;;;17.70;100.00
12759;BME280;20944;47.048;15.390;2023-05-24T12:40:25;97650.44;;;17.71;100.00
12759;BME280;20944;47.048;15.390;2023-05-24T12:42:55;97632.56;;;17.59;100.00
12759;BME280;20944;47.048;15.390;2023-05-24T12:45:24;97655.13;;;17.66;100.00
12759;BME280;20944;47.048;15.390;2023-05-24T12:47:54;97623.09;;;17.55;100.00
12759;BME280;20944;47.048;15.390;2023-05-24T12:50:25;97609.59;;;17.43;100.00
12759;BME280;20944;47.048;15.390;2023-05-24T12:52:55;97649.06;;;17.64;100.00